createdAt,value
2022-11-24T00:00:49.620Z,99835.19
2022-11-24T00:03:58.939Z,99843.75
2022-11-24T00:07:01.658Z,99836.84
2022-11-24T00:10:05.014Z,99841.50
2022-11-24T00:13:07.832Z,99844.38
2022-11-24T00:16:19.375Z,99841.75
2022-11-24T00:19:22.132Z,99842.31
2022-11-24T00:22:24.892Z,99845.19
2022-11-24T00:25:27.636Z,99854.84
2022-11-24T00:28:30.372Z,99853.81
2022-11-24T00:31:39.307Z,99850.53
2022-11-24T00:34:42.137Z,99870.75
2022-11-24T00:37:44.807Z,99873.75
2022-11-24T00:40:47.553Z,99874.38
2022-11-24T00:43:51.053Z,99879.81
2022-11-24T00:46:53.946Z,99884.84
2022-11-24T00:49:56.839Z,99891.31
2022-11-24T00:52:59.561Z,99890.69
2022-11-24T00:56:04.150Z,99887.63
2022-11-24T00:59:06.869Z,99889.44
2022-11-24T01:02:09.735Z,99894.25
2022-11-24T01:05:12.709Z,99893.44
2022-11-24T01:08:15.475Z,99887.00
2022-11-24T01:11:50.422Z,99888.00
2022-11-24T01:14:53.181Z,99897.91
2022-11-24T01:17:56.798Z,99903.34
2022-11-24T01:21:07.202Z,99898.66
2022-11-24T01:24:13.399Z,99902.50
2022-11-24T01:27:16.422Z,99903.31
2022-11-24T01:30:19.200Z,99896.03
2022-11-24T01:33:21.946Z,99898.47
2022-11-24T01:36:26.524Z,99895.66
2022-11-24T01:39:29.354Z,99893.44
2022-11-24T01:42:51.713Z,99893.41
2022-11-24T01:45:56.022Z,99897.66
2022-11-24T01:49:19.122Z,99902.09
2022-11-24T01:52:39.985Z,99906.50
2022-11-24T01:55:42.789Z,99900.19
2022-11-24T01:58:49.281Z,99906.28
2022-11-24T02:01:53.495Z,99901.63
2022-11-24T02:05:01.141Z,99901.63
2022-11-24T02:08:05.230Z,99906.25
2022-11-24T02:11:08.114Z,99908.88
2022-11-24T02:14:14.201Z,99913.41
2022-11-24T02:17:16.926Z,99916.19
2022-11-24T02:20:19.839Z,99916.38
2022-11-24T02:23:44.317Z,99914.56
2022-11-24T02:26:49.801Z,99920.22
2022-11-24T02:29:52.738Z,99920.22
2022-11-24T02:32:55.743Z,99922.00
2022-11-24T02:35:58.476Z,99917.56
2022-11-24T02:39:01.507Z,99922.44
2022-11-24T02:42:09.149Z,99928.91
2022-11-24T02:45:13.011Z,99920.63
2022-11-24T02:48:16.867Z,99923.25
2022-11-24T02:51:19.990Z,99919.22
2022-11-24T02:54:22.813Z,99926.53
2022-11-24T02:57:25.594Z,99928.53
2022-11-24T03:00:28.352Z,99930.97
2022-11-24T03:03:31.618Z,99926.53
2022-11-24T03:06:34.320Z,99933.28
2022-11-24T03:09:38.462Z,99926.53
2022-11-24T03:12:41.213Z,99929.34
2022-11-24T03:15:44.085Z,99929.78
2022-11-24T03:18:48.319Z,99930.16
2022-11-24T03:21:51.409Z,99935.06
2022-11-24T03:24:54.190Z,99935.72
2022-11-24T03:27:58.305Z,99943.41
2022-11-24T03:31:02.297Z,99946.72
2022-11-24T03:34:05.199Z,99947.97
2022-11-24T03:37:07.957Z,99942.00
2022-11-24T03:40:11.095Z,99947.50
2022-11-24T03:43:13.951Z,99948.16
2022-11-24T03:46:16.701Z,99950.88
2022-11-24T03:49:19.396Z,99957.66
2022-11-24T03:52:22.120Z,99964.00
2022-11-24T03:55:24.901Z,99963.22
2022-11-24T03:58:28.390Z,99971.13
2022-11-24T04:01:31.274Z,99978.84
2022-11-24T04:04:34.574Z,99979.84
2022-11-24T04:07:37.609Z,99981.91
2022-11-24T04:10:40.406Z,99989.22
2022-11-24T04:13:43.157Z,99992.06
2022-11-24T04:16:45.821Z,99996.28
2022-11-24T04:19:48.587Z,99999.97
2022-11-24T04:22:52.147Z,100011.31
2022-11-24T04:25:54.930Z,100010.88
2022-11-24T04:28:57.761Z,100012.56
2022-11-24T04:32:00.504Z,100020.19
2022-11-24T04:35:04.528Z,100027.66
2022-11-24T04:38:07.322Z,100035.38
2022-11-24T04:41:10.141Z,100026.91
2022-11-24T04:44:12.811Z,100039.44
2022-11-24T04:47:21.631Z,100039.69
2022-11-24T04:50:24.482Z,100045.78
2022-11-24T04:53:27.169Z,100044.78
2022-11-24T04:56:29.882Z,100048.44
2022-11-24T04:59:32.855Z,100056.09
2022-11-24T05:02:35.542Z,100058.97
2022-11-24T05:05:38.267Z,100064.75
2022-11-24T05:08:41.012Z,100071.84
2022-11-24T05:11:44.372Z,100079.09
2022-11-24T05:14:47.102Z,100079.94
2022-11-24T05:17:49.845Z,100084.75
2022-11-24T05:20:52.896Z,100091.38
2022-11-24T05:23:55.717Z,100089.56
2022-11-24T05:26:58.659Z,100095.22
2022-11-24T05:30:01.607Z,100100.28
2022-11-24T05:33:06.954Z,100106.94
2022-11-24T05:36:29.987Z,100114.59
2022-11-24T05:39:34.822Z,100116.59
2022-11-24T05:42:46.268Z,100121.25
2022-11-24T05:45:50.240Z,100129.94
2022-11-24T05:48:53.142Z,100123.06
2022-11-24T05:51:56.610Z,100137.38
2022-11-24T05:54:59.426Z,100147.56
2022-11-24T05:58:04.649Z,100157.66
2022-11-24T06:01:07.819Z,100159.38
2022-11-24T06:04:10.707Z,100163.47
2022-11-24T06:07:13.955Z,100180.69
2022-11-24T06:10:17.879Z,100162.41
2022-11-24T06:13:20.777Z,100169.22
2022-11-24T06:16:23.976Z,100171.97
2022-11-24T06:19:27.178Z,100172.25
2022-11-24T06:22:29.992Z,100178.91
2022-11-24T06:25:32.884Z,100182.28
2022-11-24T06:28:35.984Z,100188.81
2022-11-24T06:31:38.906Z,100190.22
2022-11-24T06:34:41.805Z,100206.56
2022-11-24T06:37:45.896Z,100206.56
2022-11-24T06:40:48.835Z,100215.72
2022-11-24T06:43:51.606Z,100213.09
2022-11-24T06:46:54.414Z,100223.81
2022-11-24T06:49:57.222Z,100227.81
2022-11-24T06:53:00.280Z,100229.25
2022-11-24T06:56:07.458Z,100231.78
2022-11-24T06:59:20.749Z,100229.31
2022-11-24T07:02:27.603Z,100244.38
2022-11-24T07:05:31.739Z,100239.47
2022-11-24T07:08:34.558Z,100246.63
2022-11-24T07:11:38.017Z,100249.00
2022-11-24T07:14:40.954Z,100257.97
2022-11-24T07:17:43.863Z,100260.34
2022-11-24T07:20:46.742Z,100262.97
2022-11-24T07:23:50.921Z,100266.13
2022-11-24T07:26:53.788Z,100263.41
2022-11-24T07:30:26.362Z,100260.88
2022-11-24T07:33:32.869Z,100258.25
2022-11-24T07:36:35.711Z,100270.22
2022-11-24T07:39:38.808Z,100268.09
2022-11-24T07:42:42.239Z,100282.53
2022-11-24T07:46:21.667Z,100278.59
2022-11-24T07:49:24.806Z,100275.38
2022-11-24T07:52:27.676Z,100274.09
2022-11-24T07:55:30.962Z,100284.13
2022-11-24T07:58:36.208Z,100282.69
2022-11-24T08:01:39.487Z,100278.34
2022-11-24T08:04:43.825Z,100282.38
2022-11-24T08:07:47.741Z,100280.34
2022-11-24T08:10:51.741Z,100280.84
2022-11-24T08:14:06.308Z,100287.88
2022-11-24T08:17:09.883Z,100288.38
2022-11-24T08:20:13.162Z,100290.50
2022-11-24T08:23:16.297Z,100293.75
2022-11-24T08:26:19.575Z,100297.00
2022-11-24T08:29:22.469Z,100296.59
2022-11-24T08:32:25.432Z,100299.00
2022-11-24T08:35:29.397Z,100298.25
2022-11-24T08:38:32.516Z,100294.09
2022-11-24T08:41:36.064Z,100305.16
2022-11-24T08:44:39.008Z,100311.25
2022-11-24T08:47:41.708Z,100302.38
2022-11-24T08:50:47.934Z,100306.81
2022-11-24T08:53:58.523Z,100303.38
2022-11-24T08:57:07.493Z,100302.69
2022-11-24T09:04:39.228Z,100312.06
2022-11-24T09:07:42.113Z,100308.47
2022-11-24T09:10:45.624Z,100306.00
2022-11-24T09:13:49.465Z,100309.72
2022-11-24T09:16:52.497Z,100313.22
2022-11-24T09:19:56.136Z,100315.59
2022-11-24T09:22:58.941Z,100315.03
2022-11-24T09:26:10.115Z,100317.13
2022-11-24T09:29:13.891Z,100326.13
2022-11-24T09:32:17.183Z,100320.91
2022-11-24T09:35:20.224Z,100322.50
2022-11-24T09:38:23.334Z,100317.94
2022-11-24T09:41:41.738Z,100332.19
2022-11-24T09:45:10.529Z,100340.94
2022-11-24T09:48:21.883Z,100340.69
2022-11-24T09:51:32.618Z,100334.47
2022-11-24T09:54:38.708Z,100344.94
2022-11-24T09:57:44.223Z,100340.56
2022-11-24T10:00:58.844Z,100351.84
2022-11-24T10:04:06.359Z,100348.13
2022-11-24T10:07:38.282Z,100357.47
2022-11-24T10:11:00.961Z,100359.09
2022-11-24T10:14:39.572Z,100362.69
2022-11-24T10:17:48.119Z,100358.88
2022-11-24T10:21:25.177Z,100359.44
2022-11-24T10:24:48.130Z,100360.19
2022-11-24T10:28:03.990Z,100352.84
2022-11-24T10:31:36.199Z,100364.84
2022-11-24T10:34:44.128Z,100363.41
2022-11-24T10:37:57.185Z,100369.25
2022-11-24T10:41:14.673Z,100365.28
2022-11-24T10:44:17.488Z,100368.31
2022-11-24T10:47:22.979Z,100373.19
2022-11-24T10:50:33.370Z,100375.97
2022-11-24T10:53:41.244Z,100364.09
2022-11-24T10:56:47.200Z,100367.28
2022-11-24T10:59:50.252Z,100360.69
2022-11-24T11:03:17.802Z,100350.03
2022-11-24T11:06:29.488Z,100372.06
2022-11-24T11:09:37.087Z,100366.69
2022-11-24T11:12:45.022Z,100370.94
2022-11-24T11:15:48.392Z,100372.59
2022-11-24T11:18:52.863Z,100367.84
2022-11-24T11:22:14.658Z,100367.81
2022-11-24T11:25:27.750Z,100366.59
2022-11-24T11:28:36.231Z,100370.56
2022-11-24T11:31:40.305Z,100368.13
2022-11-24T11:34:43.829Z,100363.78
2022-11-24T11:37:49.846Z,100361.53
2022-11-24T11:40:52.851Z,100354.50
2022-11-24T11:44:28.015Z,100348.84
2022-11-24T11:47:38.502Z,100353.69
2022-11-24T11:51:28.284Z,100356.56
2022-11-24T11:54:37.418Z,100358.41
2022-11-24T11:57:58.952Z,100363.84
2022-11-24T12:01:05.160Z,100355.47
2022-11-24T12:04:21.787Z,100351.25
2022-11-24T12:13:17.522Z,100367.22
2022-11-24T12:16:49.473Z,100355.94
2022-11-24T12:20:03.465Z,100369.63
2022-11-24T12:23:26.727Z,100359.47
2022-11-24T12:26:42.262Z,100362.44
2022-11-24T12:29:51.704Z,100369.16
2022-11-24T12:33:26.102Z,100373.69
2022-11-24T12:36:55.538Z,100368.91
2022-11-24T12:40:12.732Z,100377.78
2022-11-24T12:43:33.743Z,100390.78
2022-11-24T12:46:57.516Z,100387.88
2022-11-24T12:50:09.234Z,100393.03
2022-11-24T12:53:24.517Z,100393.44
2022-11-24T12:57:07.772Z,100389.75
2022-11-24T13:00:21.997Z,100400.28
2022-11-24T13:03:24.739Z,100397.41
2022-11-24T13:06:49.286Z,100400.66
2022-11-24T13:14:16.827Z,100384.91
2022-11-24T13:17:50.311Z,100385.53
2022-11-24T13:20:57.428Z,100396.78
2022-11-24T13:24:06.458Z,100395.25
2022-11-24T13:27:26.859Z,100389.09
2022-11-24T13:30:35.948Z,100387.34
2022-11-24T13:33:42.123Z,100395.31
2022-11-24T13:36:53.815Z,100388.97
2022-11-24T13:39:59.496Z,100392.69
2022-11-24T13:43:02.866Z,100399.66
2022-11-24T13:46:09.910Z,100401.34
2022-11-24T13:49:21.037Z,100408.56
2022-11-24T13:52:39.687Z,100405.19
2022-11-24T13:55:56.602Z,100399.47
2022-11-24T13:59:03.261Z,100414.75
2022-11-24T14:02:21.939Z,100424.09
2022-11-24T14:05:38.010Z,100420.88
2022-11-24T14:08:41.306Z,100429.41
2022-11-24T14:11:47.000Z,100423.91
2022-11-24T14:14:57.343Z,100429.00
2022-11-24T14:18:00.355Z,100441.59
2022-11-24T14:21:27.978Z,100444.66
2022-11-24T14:24:39.698Z,100445.25
2022-11-24T14:27:43.068Z,100448.34
2022-11-24T14:30:50.438Z,100451.56
2022-11-24T14:34:11.436Z,100451.56
2022-11-24T14:37:14.236Z,100450.38
2022-11-24T14:40:45.119Z,100461.19
2022-11-24T14:43:47.859Z,100454.63
2022-11-24T14:46:51.631Z,100458.09
2022-11-24T14:49:55.779Z,100454.25
2022-11-24T14:52:59.308Z,100456.50
2022-11-24T14:56:36.083Z,100456.09
2022-11-24T14:59:39.658Z,100452.84
2022-11-24T15:02:48.573Z,100463.41
2022-11-24T15:06:00.614Z,100473.78
2022-11-24T15:09:03.608Z,100469.09
2022-11-24T15:12:08.835Z,100476.84
2022-11-24T15:15:14.820Z,100486.38
2022-11-24T15:18:31.651Z,100489.44
2022-11-24T15:21:36.787Z,100494.50
2022-11-24T15:24:51.407Z,100488.19
2022-11-24T15:27:54.449Z,100496.72
2022-11-24T15:31:02.196Z,100485.72
2022-11-24T15:34:05.100Z,100498.72
2022-11-24T15:37:10.881Z,100498.28
2022-11-24T15:40:14.310Z,100497.22
2022-11-24T15:43:30.927Z,100499.56
2022-11-24T15:46:38.451Z,100506.69
2022-11-24T15:49:41.647Z,100517.59
2022-11-24T15:52:45.307Z,100509.63
2022-11-24T15:55:48.916Z,100515.06
2022-11-24T15:58:52.883Z,100519.94
2022-11-24T16:01:55.680Z,100532.03
2022-11-24T16:04:59.376Z,100530.16
2022-11-24T16:08:02.169Z,100535.34
2022-11-24T16:11:04.919Z,100537.94
2022-11-24T16:14:07.698Z,100530.03
2022-11-24T16:17:10.561Z,100538.81
2022-11-24T16:20:13.670Z,100540.03
2022-11-24T16:23:16.870Z,100544.78
2022-11-24T16:26:19.691Z,100552.53
2022-11-24T16:29:23.900Z,100553.69
2022-11-24T16:32:26.622Z,100547.38
2022-11-24T16:35:29.319Z,100547.00
2022-11-24T16:38:32.593Z,100556.72
2022-11-24T16:41:35.699Z,100552.44
2022-11-24T16:44:38.683Z,100564.78
2022-11-24T16:47:43.074Z,100564.31
2022-11-24T16:50:46.027Z,100560.97
2022-11-24T16:53:56.616Z,100559.19
2022-11-24T16:56:59.454Z,100553.94
2022-11-24T17:00:02.451Z,100554.63
2022-11-24T17:03:05.745Z,100555.00
2022-11-24T17:06:15.931Z,100564.97
2022-11-24T17:09:19.235Z,100566.75
2022-11-24T17:12:22.105Z,100571.41
2022-11-24T17:15:33.707Z,100577.84
2022-11-24T17:18:39.138Z,100585.94
2022-11-24T17:21:43.309Z,100583.28
2022-11-24T17:24:46.169Z,100580.44
2022-11-24T17:27:49.055Z,100587.38
2022-11-24T17:30:52.134Z,100587.38
2022-11-24T17:33:57.516Z,100578.38
2022-11-24T17:37:00.518Z,100594.53
2022-11-24T17:40:27.372Z,100588.38
2022-11-24T17:43:27.818Z,100592.41
2022-11-24T17:46:31.556Z,100594.38
2022-11-24T17:49:34.472Z,100596.66
2022-11-24T17:52:37.417Z,100596.06
2022-11-24T17:55:41.040Z,100601.66
2022-11-24T17:58:44.783Z,100602.69
2022-11-24T18:01:47.841Z,100609.19
2022-11-24T18:04:50.808Z,100603.13
2022-11-24T18:07:55.350Z,100601.66
2022-11-24T18:11:04.201Z,100609.72
2022-11-24T18:14:07.314Z,100613.84
2022-11-24T18:17:10.518Z,100612.09
2022-11-24T18:20:18.948Z,100616.16
2022-11-24T18:23:21.917Z,100617.53
2022-11-24T18:26:25.050Z,100625.38
2022-11-24T18:29:28.032Z,100624.16
2022-11-24T18:32:32.725Z,100628.66
2022-11-24T18:35:35.942Z,100626.78
2022-11-24T18:38:39.346Z,100638.53
2022-11-24T18:41:42.144Z,100634.06
2022-11-24T18:44:48.603Z,100639.59
2022-11-24T18:47:54.178Z,100654.50
2022-11-24T18:50:57.672Z,100654.50
2022-11-24T18:54:03.115Z,100662.22
2022-11-24T18:57:06.360Z,100668.94
2022-11-24T19:00:10.576Z,100665.84
2022-11-24T19:03:14.924Z,100672.59
2022-11-24T19:06:21.409Z,100668.41
2022-11-24T19:09:25.653Z,100674.88
2022-11-24T19:12:29.088Z,100679.88
2022-11-24T19:15:34.301Z,100676.72
2022-11-24T19:18:37.383Z,100679.72
2022-11-24T19:21:41.273Z,100685.66
2022-11-24T19:24:47.456Z,100692.81
2022-11-24T19:27:50.708Z,100703.72
2022-11-24T19:30:53.917Z,100695.00
2022-11-24T19:33:58.966Z,100701.09
2022-11-24T19:37:02.052Z,100704.03
2022-11-24T19:40:06.340Z,100697.09
2022-11-24T19:43:09.182Z,100702.53
2022-11-24T19:46:15.198Z,100700.44
2022-11-24T19:49:18.290Z,100707.19
2022-11-24T19:52:21.719Z,100725.44
2022-11-24T19:55:24.888Z,100723.53
2022-11-24T19:58:29.988Z,100718.50
2022-11-24T20:01:36.223Z,100710.59
2022-11-24T20:04:41.439Z,100719.63
2022-11-24T20:07:44.740Z,100723.91
2022-11-24T20:10:47.513Z,100722.09
2022-11-24T20:13:51.837Z,100727.75
2022-11-24T20:16:54.942Z,100732.28
2022-11-24T20:19:58.065Z,100725.56
2022-11-24T20:23:01.313Z,100736.44
2022-11-24T20:26:13.636Z,100722.53
2022-11-24T20:29:18.456Z,100722.16
2022-11-24T20:32:21.526Z,100726.88
2022-11-24T20:35:24.597Z,100723.63
2022-11-24T20:38:29.433Z,100731.47
2022-11-24T20:41:34.953Z,100743.97
2022-11-24T20:44:38.257Z,100750.72
2022-11-24T20:47:41.075Z,100754.09
2022-11-24T20:50:49.746Z,100762.09
2022-11-24T20:53:57.698Z,100763.03
2022-11-24T20:57:00.751Z,100771.31
2022-11-24T21:00:04.573Z,100768.16
2022-11-24T21:03:08.557Z,100769.69
2022-11-24T21:06:13.304Z,100773.13
2022-11-24T21:09:17.135Z,100773.31
2022-11-24T21:12:20.014Z,100771.06
2022-11-24T21:15:24.015Z,100769.28
2022-11-24T21:18:27.138Z,100768.28
2022-11-24T21:21:34.352Z,100763.38
2022-11-24T21:24:37.346Z,100771.78
2022-11-24T21:27:40.721Z,100779.00
2022-11-24T21:30:43.609Z,100783.38
2022-11-24T21:33:48.524Z,100792.38
2022-11-24T21:36:51.337Z,100790.41
2022-11-24T21:39:54.097Z,100786.53
2022-11-24T21:42:59.506Z,100795.91
2022-11-24T21:46:07.292Z,100803.00
2022-11-24T21:49:10.966Z,100797.25
2022-11-24T21:52:13.847Z,100803.03
2022-11-24T21:55:16.897Z,100796.28
2022-11-24T21:58:19.729Z,100787.91
2022-11-24T22:01:25.936Z,100786.78
2022-11-24T22:04:28.920Z,100796.44
2022-11-24T22:07:34.875Z,100793.44
2022-11-24T22:10:37.753Z,100796.44
2022-11-24T22:13:41.388Z,100799.13
2022-11-24T22:16:44.391Z,100804.19
2022-11-24T22:19:48.155Z,100797.84
2022-11-24T22:22:50.965Z,100804.81
2022-11-24T22:25:53.764Z,100810.81
2022-11-24T22:28:58.203Z,100807.06
2022-11-24T22:32:01.088Z,100815.78
2022-11-24T22:35:04.431Z,100816.78
2022-11-24T22:38:07.265Z,100815.47
2022-11-24T22:41:12.457Z,100819.06
2022-11-24T22:44:15.202Z,100828.31
2022-11-24T22:47:17.915Z,100831.72
2022-11-24T22:50:20.838Z,100821.88
2022-11-24T22:53:23.583Z,100830.63
2022-11-24T22:56:32.468Z,100836.84
2022-11-24T22:59:35.900Z,100835.06
2022-11-24T23:02:38.609Z,100846.78
2022-11-24T23:05:41.753Z,100851.38
2022-11-24T23:08:44.724Z,100848.44
2022-11-24T23:11:47.598Z,100852.38
2022-11-24T23:14:50.414Z,100857.97
2022-11-24T23:17:53.168Z,100867.16
2022-11-24T23:20:56.810Z,100857.47
2022-11-24T23:24:01.776Z,100864.88
2022-11-24T23:27:05.562Z,100863.38
2022-11-24T23:30:08.939Z,100859.59
2022-11-24T23:33:11.719Z,100858.13
2022-11-24T23:36:17.484Z,100862.06
2022-11-24T23:39:20.334Z,100863.66
2022-11-24T23:42:23.201Z,100863.63
2022-11-24T23:45:26.010Z,100867.78
2022-11-24T23:48:29.263Z,100874.19
2022-11-24T23:51:33.574Z,100876.81
2022-11-24T23:54:36.649Z,100877.28
2022-11-24T23:57:39.607Z,100881.59
